Time;durP1;ratioP1;P1;durP2;ratioP2;P2;SDS_P1;SDS_P2;PMS_P1;PMS_P2;Temp;Humidity;BMP_temperature;BMP_pressure;BME280_temperature;BME280_humidity;BME280_pressure;Samples;Min_cycle;Max_cycle;Signal;HPM_P1;HPM_P2
2022/06/20 00:01:26;;;;;;;;;43.00;36.67;;;;;17.39;81.46;100540.06;5077451;27;45407;-66
2022/06/20 00:03:52;;;;;;;;;42.25;34.75;;;;;17.43;82.09;100540.66;5075647;27;45353;-66
2022/06/20 00:06:22;;;;;;;;;44.50;38.00;;;;;17.45;81.88;100538.69;5076730;27;45521;-66
2022/06/20 00:08:51;;;;;;;;;38.67;35.00;;;;;17.45;81.28;100538.69;5075057;27;45286;-68
2022/06/20 00:11:24;;;;;;;;;37.67;35.00;;;;;17.43;81.91;100544.19;5075467;27;45598;-66
2022/06/20 00:13:53;;;;;;;;;38.00;35.33;;;;;17.47;83.23;100542.97;5077292;27;45238;-67
2022/06/20 00:16:20;;;;;;;;;33.00;32.33;;;;;17.49;82.51;100557.13;5076064;27;46201;-66
2022/06/20 00:18:47;;;;;;;;;40.00;36.00;;;;;17.48;83.93;100576.94;5065070;27;45465;-66
2022/06/20 00:21:15;;;;;;;;;44.33;38.33;;;;;17.50;85.90;100584.88;5080744;27;45417;-66
2022/06/20 00:23:40;;;;;;;;;44.33;38.67;;;;;17.49;88.24;100586.72;5076603;27;45280;-68
2022/06/20 00:26:07;;;;;;;;;41.67;36.00;;;;;17.46;87.13;100604.94;5074478;27;46355;-67
2022/06/20 00:28:33;;;;;;;;;38.33;33.33;;;;;17.47;85.69;100599.44;5075482;27;45275;-65
2022/06/20 00:31:00;;;;;;;;;42.25;37.50;;;;;17.49;85.33;100584.00;5076729;27;45348;-66
2022/06/20 00:33:25;;;;;;;;;28.00;26.67;;;;;17.53;84.95;100558.56;5075834;27;45760;-67
2022/06/20 00:35:51;;;;;;;;;38.67;34.67;;;;;17.50;85.48;100529.25;5076465;27;46146;-67
2022/06/20 00:38:19;;;;;;;;;38.67;33.00;;;;;17.52;84.68;100497.72;5073293;27;45348;-66
2022/06/20 00:40:55;;;;;;;;;32.67;31.67;;;;;17.50;84.06;100494.31;5073533;27;45358;-67
2022/06/20 00:43:45;;;;;;;;;42.00;34.67;;;;;17.55;86.43;100497.44;5068133;28;45519;-67
2022/06/20 00:46:29;;;;;;;;;41.00;35.67;;;;;17.55;83.38;100504.66;5106947;27;46476;-67
2022/06/20 00:49:19;;;;;;;;;38.33;35.00;;;;;17.56;84.24;100512.56;5088786;27;45483;-67
2022/06/20 00:51:54;;;;;;;;;37.67;31.33;;;;;17.55;82.96;100529.69;5075949;27;45269;-66
2022/06/20 00:54:31;;;;;;;;;37.67;34.33;;;;;17.59;83.54;100557.19;5076491;28;45554;-67
2022/06/20 00:57:19;;;;;;;;;43.33;35.67;;;;;17.62;83.69;100565.84;5074242;27;46876;-66
2022/06/20 01:00:04;;;;;;;;;39.67;35.00;;;;;17.60;82.58;100575.91;5056492;28;45836;-66
2022/06/20 01:02:34;;;;;;;;;37.67;34.67;;;;;17.59;81.95;100576.88;5082852;27;45488;-66
2022/06/20 01:05:02;;;;;;;;;34.00;31.33;;;;;17.63;81.53;100588.22;5076950;27;45471;-66
2022/06/20 01:07:42;;;;;;;;;38.00;33.33;;;;;17.66;81.75;100604.94;5075319;27;45715;-67
2022/06/20 01:10:11;;;;;;;;;36.33;32.33;;;;;17.71;83.05;100603.72;5076276;27;45352;-67
2022/06/20 01:12:48;;;;;;;;;42.00;32.00;;;;;17.73;82.87;100609.84;5074974;27;45448;-67
2022/06/20 01:15:24;;;;;;;;;33.50;32.50;;;;;17.74;82.37;100608.84;5073172;28;45483;-67
2022/06/20 01:17:50;;;;;;;;;35.67;32.67;;;;;17.74;83.10;100603.47;5071667;27;46863;-66
2022/06/20 01:20:24;;;;;;;;;39.67;33.67;;;;;17.76;83.68;100588.06;5074354;27;45456;-66
2022/06/20 01:23:03;;;;;;;;;35.00;33.33;;;;;17.76;82.74;100588.06;5074734;28;45372;-68
2022/06/20 01:26:07;;;;;;;;;38.33;30.00;;;;;17.70;84.68;100581.34;5074357;27;45313;-66
2022/06/20 01:28:37;;;;;;;;;35.00;32.67;;;;;17.69;84.42;100567.03;5072737;27;46453;-66
2022/06/20 01:31:04;;;;;;;;;34.67;32.00;;;;;17.63;84.68;100545.19;5074535;27;45413;-66
2022/06/20 01:33:30;;;;;;;;;41.00;35.67;;;;;17.68;84.35;100541.13;5074758;27;45334;-67
2022/06/20 01:38:43;;;;;;;;;53.25;42.00;;;;;17.53;85.08;100504.78;5074609;28;45508;-68
2022/06/20 01:43:59;;;;;;;;;58.25;46.00;;;;;17.46;84.57;100468.69;5063392;28;45314;-67
2022/06/20 01:46:27;;;;;;;;;63.50;50.50;;;;;17.38;85.95;100442.44;5071362;27;45588;-67
2022/06/20 01:48:55;;;;;;;;;60.75;49.50;;;;;17.44;86.94;100435.66;5065171;28;46112;-67
2022/06/20 01:51:25;;;;;;;;;57.00;47.75;;;;;17.47;86.55;100424.66;5069437;27;45329;-67
2022/06/20 01:53:54;;;;;;;;;63.25;48.25;;;;;17.42;86.36;100400.00;5069624;27;45841;-66
2022/06/20 01:56:21;;;;;;;;;46.67;37.33;;;;;17.38;86.43;100377.06;5056032;28;45876;-66
2022/06/20 01:58:57;;;;;;;;;36.67;29.67;;;;;17.33;85.76;100325.56;5061474;27;46202;-68
2022/06/20 02:01:23;;;;;;;;;33.00;30.00;;;;;17.29;86.32;100294.56;5055393;28;45366;-67
2022/06/20 02:03:49;;;;;;;;;40.00;31.67;;;;;17.28;86.19;100247.16;5061293;28;45450;-68
2022/06/20 02:06:17;;;;;;;;;33.67;31.00;;;;;17.17;86.63;100197.06;5075986;28;45567;-68
2022/06/20 02:08:48;;;;;;;;;28.67;26.00;;;;;17.05;86.48;100145.28;5074646;27;45441;-67
2022/06/20 02:11:32;;;;;;;;;31.00;29.00;;;;;16.99;86.96;100124.34;5075856;28;45457;-67
2022/06/20 02:14:07;;;;;;;;;25.33;24.00;;;;;16.91;86.68;100126.88;5072039;27;45410;-66
2022/06/20 02:16:35;;;;;;;;;33.00;32.00;;;;;16.86;86.90;100171.25;5075706;27;45449;-68
2022/06/20 02:19:04;;;;;;;;;34.33;28.00;;;;;16.90;86.76;100219.19;5074277;27;46219;-67
2022/06/20 02:21:33;;;;;;;;;41.67;34.00;;;;;16.97;86.83;100255.28;5073897;27;45233;-68
2022/06/20 02:24:10;;;;;;;;;29.67;27.00;;;;;16.99;86.46;100272.09;5074251;28;45570;-67
2022/06/20 02:26:38;;;;;;;;;29.33;27.33;;;;;17.06;86.07;100299.28;5075608;27;45410;-69
2022/06/20 02:29:26;;;;;;;;;33.33;29.33;;;;;17.15;86.06;100327.16;5073776;27;45313;-69
2022/06/20 02:31:55;;;;;;;;;32.33;27.00;;;;;17.20;87.30;100365.25;5073204;27;45478;-68
2022/06/20 02:34:24;;;;;;;;;34.00;26.00;;;;;17.18;86.49;100384.19;5077224;28;45272;-67
2022/06/20 02:36:50;;;;;;;;;31.00;27.00;;;;;17.20;85.69;100394.81;5112058;27;45487;-68
2022/06/20 02:39:17;;;;;;;;;35.00;28.00;;;;;17.28;86.09;100401.22;5073117;27;45561;-68
2022/06/20 02:41:46;;;;;;;;;30.33;30.00;;;;;17.36;85.48;100405.94;5077509;27;45336;-69
2022/06/20 02:44:17;;;;;;;;;34.00;30.33;;;;;17.40;84.54;100423.50;5077637;27;45465;-67
2022/06/20 02:46:47;;;;;;;;;38.00;32.00;;;;;17.32;83.79;100439.44;5111059;27;45573;-67
2022/06/20 02:49:16;;;;;;;;;33.67;31.00;;;;;17.40;85.11;100450.38;5076074;28;45602;-68
2022/06/20 02:51:47;;;;;;;;;34.33;32.67;;;;;17.36;84.59;100443.56;5078369;27;45440;-68
2022/06/20 02:54:14;;;;;;;;;31.33;30.00;;;;;17.40;86.29;100456.59;5075789;27;45331;-67
2022/06/20 02:56:54;;;;;;;;;34.00;32.33;;;;;17.38;83.79;100457.72;5077878;27;45374;-67
2022/06/20 02:59:34;;;;;;;;;30.67;28.33;;;;;17.32;84.86;100450.22;5076981;27;46295;-67
2022/06/20 03:02:06;;;;;;;;;31.67;31.00;;;;;17.41;85.06;100452.06;5077104;27;45543;-68
2022/06/20 03:04:34;;;;;;;;;32.00;28.67;;;;;17.47;84.95;100451.56;5077045;27;45275;-69
2022/06/20 03:07:04;;;;;;;;;28.00;26.33;;;;;17.53;83.47;100456.38;5093465;27;45265;-67
2022/06/20 03:09:34;;;;;;;;;33.33;30.67;;;;;17.45;83.59;100469.66;5076563;28;45553;-67
2022/06/20 03:12:03;;;;;;;;;29.67;28.33;;;;;17.46;83.85;100479.44;5076770;27;45235;-68
2022/06/20 03:14:38;;;;;;;;;31.33;29.33;;;;;17.48;83.15;100488.22;5075929;27;45329;-69
2022/06/20 03:17:06;;;;;;;;;31.00;29.00;;;;;17.36;82.76;100508.09;5074763;28;45448;-68
2022/06/20 03:19:35;;;;;;;;;25.67;25.67;;;;;17.37;83.48;100515.16;5075753;27;45483;-67
2022/06/20 03:22:04;;;;;;;;;21.33;21.33;;;;;17.37;82.81;100513.31;5076666;27;45551;-67
2022/06/20 03:24:30;;;;;;;;;26.00;22.67;;;;;17.33;83.53;100513.72;5074888;27;45702;-65
2022/06/20 03:26:56;;;;;;;;;21.33;18.33;;;;;17.37;82.87;100526.75;5076969;27;45544;-66
2022/06/20 03:29:25;;;;;;;;;26.33;23.33;;;;;17.42;82.85;100528.19;5075179;27;45487;-66
2022/06/20 03:31:51;;;;;;;;;25.67;24.67;;;;;17.47;83.15;100532.22;5076553;28;45322;-69
2022/06/20 03:34:17;;;;;;;;;26.67;24.00;;;;;17.49;81.75;100530.25;5076791;27;45429;-67
2022/06/20 03:36:47;;;;;;;;;29.00;29.00;;;;;17.54;83.18;100544.13;5078150;27;45694;-67
2022/06/20 03:39:13;;;;;;;;;35.33;27.00;;;;;17.56;82.56;100552.91;5076113;27;46066;-67
2022/06/20 03:41:40;;;;;;;;;26.67;25.33;;;;;17.52;82.33;100556.84;5077368;27;45389;-66
2022/06/20 03:44:24;;;;;;;;;31.00;28.00;;;;;17.46;80.58;100560.09;5074860;27;45655;-67
2022/06/20 03:47:06;;;;;;;;;32.67;28.00;;;;;17.43;81.04;100565.69;5077969;27;45251;-67
2022/06/20 03:49:40;;;;;;;;;27.33;27.33;;;;;17.45;80.89;100569.13;5074708;27;46637;-67
2022/06/20 03:52:13;;;;;;;;;26.00;25.00;;;;;17.45;80.43;100579.91;5077667;27;45412;-68
2022/06/20 03:55:10;;;;;;;;;32.67;27.67;;;;;17.44;80.83;100569.25;5073438;27;45534;-67
2022/06/20 03:57:53;;;;;;;;;25.00;23.00;;;;;17.40;79.83;100563.28;5076778;27;45330;-67
2022/06/20 04:00:45;;;;;;;;;35.33;28.33;;;;;17.43;80.13;100567.53;5076011;27;45697;-66
2022/06/20 04:03:28;;;;;;;;;31.67;31.67;;;;;17.40;79.89;100563.28;5061576;28;45407;-68
2022/06/20 04:06:04;;;;;;;;;28.33;25.00;;;;;17.30;79.83;100563.19;5078051;27;45250;-67
2022/06/20 04:11:30;;;;;;;;;25.00;23.00;;;;;17.17;79.13;100588.56;5074301;27;46486;-66
2022/06/20 04:14:00;;;;;;;;;30.33;27.33;;;;;17.15;79.74;100593.19;5076436;27;45338;-66
2022/06/20 04:16:36;;;;;;;;;30.00;27.33;;;;;17.09;79.83;100592.75;5076894;27;45357;-68
2022/06/20 04:19:21;;;;;;;;;31.33;29.33;;;;;17.16;79.13;100597.59;5069092;27;45464;-70
2022/06/20 04:21:56;;;;;;;;;27.33;24.67;;;;;17.15;78.89;100603.97;5065326;27;45847;-68
2022/06/20 04:24:26;;;;;;;;;32.67;30.00;;;;;17.04;78.46;100605.69;5074550;27;45462;-69
2022/06/20 04:27:11;;;;;;;;;32.00;29.67;;;;;16.97;79.11;100609.88;5077328;27;45379;-67
2022/06/20 04:29:53;;;;;;;;;30.33;24.00;;;;;16.99;78.42;100610.59;5074428;27;45812;-68
2022/06/20 04:32:41;;;;;;;;;33.00;30.33;;;;;16.92;78.49;100611.22;5073420;27;46111;-67
2022/06/20 04:35:26;;;;;;;;;35.67;30.33;;;;;16.92;78.51;100612.06;5076375;27;45964;-68
2022/06/20 04:38:16;;;;;;;;;38.75;32.50;;;;;16.92;78.40;100612.06;5067946;27;45369;-68
2022/06/20 04:40:58;;;;;;;;;26.67;25.67;;;;;16.94;78.37;100611.97;5061305;28;45484;-68
2022/06/20 04:43:35;;;;;;;;;26.33;26.33;;;;;16.93;77.96;100612.97;5076768;27;45272;-67
2022/06/20 04:46:05;;;;;;;;;30.67;28.67;;;;;16.93;78.43;100619.19;5074483;27;45401;-68
2022/06/20 04:48:31;;;;;;;;;31.33;27.00;;;;;16.94;78.52;100612.84;5074375;27;45196;-67
2022/06/20 04:51:06;;;;;;;;;37.00;31.33;;;;;16.99;77.70;100637.47;5075131;27;45453;-68
2022/06/20 04:53:36;;;;;;;;;27.00;27.00;;;;;16.93;77.86;100648.72;5076657;27;45248;-69
2022/06/20 04:56:05;;;;;;;;;28.67;27.00;;;;;16.91;77.82;100642.59;5073696;27;45384;-67
2022/06/20 04:58:43;;;;;;;;;27.33;24.33;;;;;16.99;77.62;100656.28;5075288;27;45441;-67
2022/06/20 05:01:09;;;;;;;;;33.33;30.67;;;;;17.02;77.70;100656.03;5072666;27;45742;-67
2022/06/20 05:03:39;;;;;;;;;29.00;29.00;;;;;17.03;78.21;100654.19;5075076;27;45498;-67
2022/06/20 05:06:09;;;;;;;;;38.33;32.33;;;;;17.07;77.51;100653.84;5075478;27;45442;-68
2022/06/20 05:08:39;;;;;;;;;30.00;27.00;;;;;17.15;78.58;100673.81;5076494;27;45270;-68
2022/06/20 05:11:09;;;;;;;;;31.00;28.67;;;;;17.20;77.86;100674.31;5074532;27;45364;-67
2022/06/20 05:14:07;;;;;;;;;35.00;28.00;;;;;17.16;76.54;100683.59;5076038;27;45471;-67
2022/06/20 05:16:49;;;;;;;;;31.00;23.00;;;;;17.06;77.26;100668.25;5065445;27;45397;-67
2022/06/20 05:19:25;;;;;;;;;29.67;26.00;;;;;17.09;77.12;100668.00;5074260;27;45484;-69
2022/06/20 05:21:56;;;;;;;;;26.33;25.33;;;;;17.17;77.08;100664.66;5071415;27;45436;-67
2022/06/20 05:24:24;;;;;;;;;36.00;31.67;;;;;17.18;76.99;100671.72;5070531;27;46531;-67
2022/06/20 05:26:52;;;;;;;;;33.00;27.67;;;;;17.22;76.77;100667.84;5073737;27;45518;-67
2022/06/20 05:29:27;;;;;;;;;28.33;24.00;;;;;17.29;76.41;100657.41;5071592;27;45546;-69
2022/06/20 05:31:55;;;;;;;;;27.00;25.00;;;;;17.25;75.91;100661.34;5069713;28;45586;-68
2022/06/20 05:34:52;;;;;;;;;31.00;27.33;;;;;17.27;75.82;100660.22;5072070;27;46396;-68
2022/06/20 05:37:30;;;;;;;;;27.33;26.00;;;;;17.27;75.29;100678.19;5072684;28;45250;-69
2022/06/20 05:40:08;;;;;;;;;28.67;24.33;;;;;17.29;75.85;100670.84;5072328;27;45455;-63
2022/06/20 05:42:34;;;;;;;;;24.67;24.33;;;;;17.21;75.76;100690.31;5071709;27;47055;-64
2022/06/20 05:45:00;;;;;;;;;23.00;21.67;;;;;17.08;75.66;100695.00;5074570;27;46411;-63
2022/06/20 05:47:30;;;;;;;;;18.33;17.00;;;;;17.04;75.96;100697.03;5072658;27;45464;-64
2022/06/20 05:50:11;;;;;;;;;27.33;26.33;;;;;17.08;76.43;100708.41;5073805;27;45296;-65
2022/06/20 05:52:40;;;;;;;;;25.00;22.67;;;;;17.19;75.84;100715.59;5074759;27;45368;-66
2022/06/20 05:55:15;;;;;;;;;21.67;21.00;;;;;17.21;75.43;100716.34;5074097;27;45270;-63
2022/06/20 05:57:45;;;;;;;;;22.00;20.00;;;;;17.22;75.44;100718.03;5074302;27;45329;-65
2022/06/20 06:00:19;;;;;;;;;27.67;26.00;;;;;17.24;74.90;100725.00;5073598;27;45459;-69
2022/06/20 06:02:59;;;;;;;;;22.67;19.00;;;;;17.22;74.80;100716.22;5074446;28;45452;-63
2022/06/20 06:05:31;;;;;;;;;20.00;18.00;;;;;17.28;73.90;100722.91;5069837;27;46209;-63
2022/06/20 06:08:15;;;;;;;;;19.33;16.33;;;;;17.21;74.05;100735.16;5074586;27;45428;-67
2022/06/20 06:10:46;;;;;;;;;15.67;15.33;;;;;17.18;74.01;100727.31;5078634;27;45443;-59
2022/06/20 06:13:36;;;;;;;;;20.00;18.00;;;;;17.22;73.79;100734.16;5070440;27;45337;-64
2022/06/20 06:19:04;;;;;;;;;27.33;23.33;;;;;17.38;73.63;100742.69;5077617;28;45332;-65
2022/06/20 06:21:33;;;;;;;;;18.00;17.67;;;;;17.44;73.54;100746.69;5105882;27;45455;-63
2022/06/20 06:23:59;;;;;;;;;14.67;14.67;;;;;17.37;72.24;100751.72;5073969;28;45412;-64
2022/06/20 06:26:25;;;;;;;;;16.00;12.67;;;;;17.33;72.42;100763.72;5078441;27;45424;-64
2022/06/20 06:28:52;;;;;;;;;21.67;19.67;;;;;17.26;72.29;100754.44;5075030;27;45322;-62
2022/06/20 06:31:29;;;;;;;;;14.00;14.00;;;;;17.15;72.82;100763.38;5077550;27;45520;-64
2022/06/20 06:34:11;;;;;;;;;14.33;14.33;;;;;17.19;72.81;100777.41;5078790;27;45332;-63
2022/06/20 06:36:42;;;;;;;;;20.00;18.00;;;;;17.23;73.36;100770.81;5074924;27;45752;-66
2022/06/20 06:39:16;;;;;;;;;17.67;14.00;;;;;17.29;72.54;100776.53;5075193;27;46720;-64
2022/06/20 06:41:46;;;;;;;;;27.33;25.00;;;;;17.31;73.27;100782.63;5074147;28;45413;-67
2022/06/20 06:44:40;;;;;;;;;18.33;16.00;;;;;17.26;72.43;100760.66;5078934;27;45483;-68
2022/06/20 06:47:19;;;;;;;;;13.00;13.00;;;;;17.40;72.59;100781.91;5078240;27;46371;-64
2022/06/20 06:49:53;;;;;;;;;23.00;15.67;;;;;17.47;71.90;100784.97;5075073;27;45434;-63
2022/06/20 06:52:18;;;;;;;;;24.33;22.00;;;;;17.52;71.62;100782.72;5078522;27;45426;-64
2022/06/20 06:54:54;;;;;;;;;23.33;21.00;;;;;17.55;71.26;100785.16;5077353;27;45666;-67
2022/06/20 06:57:28;;;;;;;;;17.67;16.67;;;;;17.43;70.53;100798.75;5058563;28;46176;-68
2022/06/20 07:00:03;;;;;;;;;19.00;16.33;;;;;17.42;70.51;100794.34;5109058;27;45498;-63
2022/06/20 07:02:32;;;;;;;;;17.00;15.33;;;;;17.42;70.86;100797.91;5064592;27;45570;-64
2022/06/20 07:05:09;;;;;;;;;23.33;19.67;;;;;17.37;70.62;100797.44;5071147;27;45662;-62
2022/06/20 07:07:42;;;;;;;;;14.67;12.67;;;;;17.19;71.23;100796.22;5075195;27;47729;-63
2022/06/20 07:10:17;;;;;;;;;20.67;17.00;;;;;17.22;71.82;100812.13;5073466;27;45630;-65
2022/06/20 07:12:50;;;;;;;;;19.67;17.00;;;;;17.23;71.80;100819.19;5076698;27;45329;-64
2022/06/20 07:15:19;;;;;;;;;16.33;16.33;;;;;17.29;72.17;100824.06;5072630;27;45518;-63
2022/06/20 07:18:07;;;;;;;;;14.00;14.00;;;;;17.38;71.66;100828.72;5074077;27;45487;-65
2022/06/20 07:20:38;;;;;;;;;18.67;18.67;;;;;17.37;71.33;100827.00;5077238;28;45409;-62
2022/06/20 07:23:11;;;;;;;;;20.67;16.67;;;;;17.39;71.13;100822.34;5069889;27;46750;-63
2022/06/20 07:25:42;;;;;;;;;21.67;21.67;;;;;17.39;71.37;100835.78;5075154;27;45840;-62
2022/06/20 07:28:35;;;;;;;;;24.33;19.00;;;;;17.32;71.43;100839.97;5073795;27;45717;-62
2022/06/20 07:31:05;;;;;;;;;27.33;18.33;;;;;17.30;70.96;100833.84;5073303;27;45340;-63
2022/06/20 07:33:49;;;;;;;;;21.00;17.00;;;;;17.31;71.41;100832.84;5076455;27;45480;-61
2022/06/20 07:36:19;;;;;;;;;17.00;17.00;;;;;17.35;70.98;100840.56;5067388;27;45619;-61
2022/06/20 07:38:56;;;;;;;;;17.67;14.67;;;;;17.29;71.67;100846.44;5074910;27;45570;-60
2022/06/20 07:41:24;;;;;;;;;22.67;17.00;;;;;17.30;72.10;100849.97;5072548;27;45512;-62
2022/06/20 07:44:05;;;;;;;;;23.67;18.67;;;;;17.34;71.37;100855.00;5072093;27;45411;-63
2022/06/20 07:46:46;;;;;;;;;19.00;16.00;;;;;17.35;71.15;100856.72;5100988;27;45249;-63
2022/06/20 07:49:20;;;;;;;;;30.00;26.33;;;;;17.23;71.54;100857.69;5073722;27;45538;-63
2022/06/20 07:51:50;;;;;;;;;20.00;17.33;;;;;17.14;71.67;100857.53;5076306;27;45326;-64
2022/06/20 07:54:34;;;;;;;;;20.67;19.33;;;;;17.15;72.21;100859.25;5072647;27;45745;-65
2022/06/20 07:57:05;;;;;;;;;21.33;18.67;;;;;17.20;72.31;100873.22;5076387;27;45473;-64
2022/06/20 07:59:53;;;;;;;;;26.33;18.67;;;;;17.27;72.30;100869.88;5072632;27;45479;-64
2022/06/20 08:02:24;;;;;;;;;26.67;24.67;;;;;17.28;72.46;100876.13;5057199;28;45463;-65
2022/06/20 08:04:56;;;;;;;;;22.67;22.67;;;;;17.22;71.77;100876.63;5056642;28;45499;-61
2022/06/20 08:07:27;;;;;;;;;31.00;27.00;;;;;17.16;71.99;100871.72;5074741;28;45537;-61
2022/06/20 08:10:01;;;;;;;;;27.67;24.33;;;;;17.11;72.85;100869.41;5071344;27;46455;-59
2022/06/20 08:12:27;;;;;;;;;23.00;20.33;;;;;17.14;72.49;100877.22;5073043;27;45327;-64
2022/06/20 08:15:01;;;;;;;;;24.67;21.67;;;;;17.08;73.36;100861.59;5076747;28;45529;-60
2022/06/20 08:17:29;;;;;;;;;27.67;19.00;;;;;17.12;74.18;100870.25;5074183;27;45492;-61
2022/06/20 08:19:55;;;;;;;;;36.67;28.00;;;;;17.14;73.58;100873.69;5081139;27;45664;-61
2022/06/20 08:22:34;;;;;;;;;23.67;21.67;;;;;17.15;72.67;100876.22;5095515;27;45476;-61
2022/06/20 08:25:27;;;;;;;;;31.67;27.00;;;;;17.22;72.60;100876.63;5076681;28;45484;-61
2022/06/20 08:27:59;;;;;;;;;28.67;24.00;;;;;17.22;71.51;100865.88;5075667;28;45491;-65
2022/06/20 08:30:36;;;;;;;;;31.33;24.67;;;;;17.28;71.78;100870.75;5076628;27;45303;-64
2022/06/20 08:33:34;;;;;;;;;26.67;24.33;;;;;17.28;71.51;100868.06;5076859;27;45364;-63
2022/06/20 08:36:08;;;;;;;;;29.33;23.33;;;;;17.21;71.44;100856.94;5072563;27;45526;-62
2022/06/20 08:38:48;;;;;;;;;37.00;31.33;;;;;17.17;71.68;100863.53;5107747;27;45566;-66
2022/06/20 08:41:47;;;;;;;;;22.33;20.67;;;;;17.26;71.37;100861.94;5076493;27;45420;-51
2022/06/20 08:44:39;;;;;;;;;23.00;21.33;;;;;17.35;71.06;100851.31;5073229;27;45772;-66
2022/06/20 08:47:26;;;;;;;;;24.33;22.67;;;;;17.57;70.64;100863.03;5059471;28;45366;-64
2022/06/20 08:50:13;;;;;;;;;28.00;25.33;;;;;17.68;70.63;100863.91;5088946;27;45811;-68
2022/06/20 08:52:45;;;;;;;;;32.33;22.33;;;;;17.80;69.53;100870.09;5071980;28;46167;-62
2022/06/20 08:55:26;;;;;;;;;28.67;24.67;;;;;17.85;68.93;100875.13;5082979;27;45320;-62
2022/06/20 08:57:57;;;;;;;;;23.33;20.00;;;;;17.89;69.26;100876.59;5083043;27;45363;-64
2022/06/20 09:00:49;;;;;;;;;25.00;18.33;;;;;17.90;68.58;100875.59;5076680;27;45421;-65
2022/06/20 09:03:22;;;;;;;;;26.33;25.00;;;;;17.85;68.97;100883.22;5074858;27;45341;-66
2022/06/20 09:05:53;;;;;;;;;22.33;22.33;;;;;17.84;68.58;100879.66;5074502;27;45378;-64
2022/06/20 09:08:30;;;;;;;;;40.50;36.50;;;;;17.92;69.05;100889.78;5080076;27;45388;-67
2022/06/20 09:11:07;;;;;;;;;24.33;21.00;;;;;18.06;68.52;100900.25;5068897;27;45472;-63
2022/06/20 09:13:47;;;;;;;;;18.00;17.67;;;;;18.11;67.58;100907.97;5091470;27;48393;-60
2022/06/20 09:16:27;;;;;;;;;21.67;21.00;;;;;18.17;67.82;100908.31;5075014;27;45454;-63
2022/06/20 09:19:11;;;;;;;;;28.00;24.67;;;;;18.16;67.94;100909.28;5076087;27;45491;-65
2022/06/20 09:22:09;;;;;;;;;30.00;26.33;;;;;18.13;68.30;100906.88;5076508;28;45440;-68
2022/06/20 09:24:40;;;;;;;;;21.00;19.00;;;;;18.20;67.54;100910.75;5068564;28;45475;-64
2022/06/20 09:27:14;;;;;;;;;23.33;21.00;;;;;18.20;67.93;100899.13;5074375;27;45440;-65
2022/06/20 09:30:03;;;;;;;;;25.00;22.33;;;;;18.33;67.00;100898.94;5073442;27;45425;-63
2022/06/20 09:33:02;;;;;;;;;24.33;22.33;;;;;18.34;67.20;100904.19;5071102;27;45388;-65
2022/06/20 09:35:59;;;;;;;;;30.67;27.67;;;;;18.37;67.11;100903.97;5070495;28;45745;-61
2022/06/20 09:38:39;;;;;;;;;24.00;22.33;;;;;18.52;67.10;100917.97;5075309;27;45575;-66
2022/06/20 09:41:30;;;;;;;;;25.67;23.67;;;;;18.64;66.19;100933.16;5071679;27;45483;-65
2022/06/20 09:44:17;;;;;;;;;20.67;19.33;;;;;18.71;66.46;100931.63;5081128;28;45399;-64
2022/06/20 09:47:01;;;;;;;;;25.33;22.33;;;;;18.68;65.62;100937.28;5078949;28;45952;-62
2022/06/20 09:50:04;;;;;;;;;30.33;24.00;;;;;18.61;65.46;100930.66;5080092;28;45412;-65
2022/06/20 09:52:38;;;;;;;;;24.33;22.00;;;;;18.65;65.41;100936.69;5081721;27;45452;-64
2022/06/20 09:55:27;;;;;;;;;20.67;19.00;;;;;18.61;65.61;100933.34;5081376;28;45396;-63
2022/06/20 09:58:12;;;;;;;;;22.67;22.67;;;;;18.64;66.00;100933.16;5075134;28;45595;-61
2022/06/20 10:00:47;;;;;;;;;25.00;21.67;;;;;18.68;65.59;100939.13;5083230;27;45420;-64
2022/06/20 10:03:46;;;;;;;;;23.33;21.67;;;;;18.67;65.72;100935.56;5080725;28;45353;-62
2022/06/20 10:06:35;;;;;;;;;16.33;15.00;;;;;18.79;65.09;100933.69;5110968;27;45318;-65
2022/06/20 10:09:14;;;;;;;;;21.33;18.67;;;;;18.90;64.23;100940.84;5075293;27;47806;-62
2022/06/20 10:11:44;;;;;;;;;24.67;22.67;;;;;19.03;64.86;100945.06;5081423;28;45464;-64
2022/06/20 10:14:59;;;;;;;;;25.67;24.33;;;;;19.11;63.93;100941.69;5079326;28;45569;-64
2022/06/20 10:17:37;;;;;;;;;23.00;23.00;;;;;19.14;63.77;100938.72;5061222;28;45450;-64
2022/06/20 10:20:23;;;;;;;;;21.00;19.67;;;;;19.20;63.04;100935.50;5079854;27;45540;-66
2022/06/20 10:22:54;;;;;;;;;22.00;20.67;;;;;19.34;62.97;100943.25;5081483;28;45342;-62
2022/06/20 10:25:52;;;;;;;;;16.67;16.33;;;;;19.52;62.46;100937.22;5082257;27;45349;-71
2022/06/20 10:28:30;;;;;;;;;21.00;20.00;;;;;19.68;61.93;100940.34;5081422;28;45318;-73
2022/06/20 10:31:21;;;;;;;;;22.00;18.33;;;;;19.77;61.01;100938.63;5079616;27;45330;-66
2022/06/20 10:34:07;;;;;;;;;19.00;18.00;;;;;19.89;61.66;100937.53;5076601;28;45752;-65
2022/06/20 10:36:51;;;;;;;;;15.67;15.67;;;;;20.00;61.72;100945.53;5081329;28;45247;-68
2022/06/20 10:39:27;;;;;;;;;21.33;17.67;;;;;20.08;60.17;100931.34;5082739;27;45468;-64
2022/06/20 10:42:06;;;;;;;;;15.33;15.33;;;;;20.06;60.71;100927.94;5088262;27;46030;-69
2022/06/20 10:44:56;;;;;;;;;20.00;19.00;;;;;20.19;60.98;100939.34;5081723;27;45337;-67
2022/06/20 10:47:33;;;;;;;;;21.00;17.00;;;;;20.39;60.83;100943.75;5082156;28;45423;-66
2022/06/20 10:50:10;;;;;;;;;19.00;19.00;;;;;20.52;59.37;100952.47;5082387;27;45337;-66
2022/06/20 10:52:57;;;;;;;;;20.33;19.00;;;;;20.65;58.89;100946.78;5078214;28;47829;-66
2022/06/20 10:55:51;;;;;;;;;19.33;18.00;;;;;20.68;59.43;100951.06;5077983;27;45416;-66
2022/06/20 10:58:38;;;;;;;;;14.67;14.67;;;;;20.74;58.61;100955.91;5066985;27;45473;-65
2022/06/20 11:01:37;;;;;;;;;19.33;17.67;;;;;20.84;59.37;100948.66;5097336;27;45406;-66
2022/06/20 11:04:03;;;;;;;;;20.00;18.00;;;;;20.94;58.42;100946.78;5053698;28;45699;-64
2022/06/20 11:06:56;;;;;;;;;16.67;16.00;;;;;20.86;58.34;100952.06;5090549;27;45411;-67
2022/06/20 11:09:27;;;;;;;;;21.67;17.33;;;;;20.99;58.82;100955.31;5057962;28;45349;-65
2022/06/20 11:12:05;;;;;;;;;21.67;19.33;;;;;21.00;57.91;100951.63;5063003;28;45426;-64
2022/06/20 11:14:49;;;;;;;;;22.33;20.00;;;;;21.08;58.67;100962.53;5074403;28;45593;-60
2022/06/20 11:17:26;;;;;;;;;20.00;18.67;;;;;21.19;58.66;100950.72;5089477;27;45286;-62
2022/06/20 11:20:19;;;;;;;;;15.67;15.67;;;;;21.41;57.94;100954.97;5071008;27;45681;-63
2022/06/20 11:22:54;;;;;;;;;20.00;19.33;;;;;21.60;57.03;100954.88;5097619;27;45498;-62
2022/06/20 11:25:23;;;;;;;;;19.33;17.67;;;;;21.68;55.99;100959.56;5100268;27;47756;-61
2022/06/20 11:28:19;;;;;;;;;16.00;15.00;;;;;21.72;56.55;100959.13;5098885;27;45353;-65
2022/06/20 11:31:13;;;;;;;;;18.67;17.67;;;;;21.96;55.56;100961.28;5099070;27;45570;-66
2022/06/20 11:34:02;;;;;;;;;26.67;19.00;;;;;22.14;55.91;100965.94;5098672;27;45520;-65
2022/06/20 11:37:00;;;;;;;;;16.33;16.33;;;;;22.24;54.87;100964.84;5097732;27;46071;-62
2022/06/20 11:39:46;;;;;;;;;15.00;15.00;;;;;22.29;54.15;100967.13;5098224;27;45391;-63
2022/06/20 11:42:30;;;;;;;;;14.00;14.00;;;;;22.31;55.62;100960.56;5077311;27;45667;-67
2022/06/20 11:45:33;;;;;;;;;16.67;16.67;;;;;22.38;54.52;100950.78;5096113;27;45436;-62
2022/06/20 11:48:07;;;;;;;;;17.67;16.67;;;;;22.67;54.60;100955.16;5055996;28;46279;-62
2022/06/20 11:50:39;;;;;;;;;14.00;12.67;;;;;22.66;53.51;100959.72;5057346;28;45407;-65
2022/06/20 11:53:29;;;;;;;;;30.00;25.00;;;;;22.68;54.01;100956.84;5057258;28;45402;-64
2022/06/20 11:56:06;;;;;;;;;20.67;18.00;;;;;22.75;54.16;100955.22;5058151;28;45379;-64
2022/06/20 11:58:57;;;;;;;;;21.33;21.00;;;;;22.89;54.43;100954.69;5057591;28;45389;-64
2022/06/20 12:01:27;;;;;;;;;14.00;12.33;;;;;22.90;52.85;100944.69;5092400;27;45345;-60
2022/06/20 12:04:01;;;;;;;;;16.00;14.00;;;;;22.90;53.28;100940.13;5096355;27;45369;-65